sensor_id;sensor_type;location;lat;lon;timestamp;P1;durP1;ratioP1;P2;durP2;ratioP2
7985;SDS011;4038;42.612;23.066;2022-11-18T00:00:56;66.47;;;59.25;;
7985;SDS011;4038;42.612;23.066;2022-11-18T00:03:28;66.93;;;58.88;;
7985;SDS011;4038;42.612;23.066;2022-11-18T00:05:54;317.17;;;69.07;;
7985;SDS011;4038;42.612;23.066;2022-11-18T00:08:21;333.45;;;61.28;;
7985;SDS011;4038;42.612;23.066;2022-11-18T00:10:47;254.85;;;59.15;;
7985;SDS011;4038;42.612;23.066;2022-11-18T00:13:13;199.60;;;56.30;;
7985;SDS011;4038;42.612;23.066;2022-11-18T00:16:01;188.97;;;57.33;;
7985;SDS011;4038;42.612;23.066;2022-11-18T00:18:30;233.47;;;57.50;;
7985;SDS011;4038;42.612;23.066;2022-11-18T00:21:09;250.53;;;60.33;;
7985;SDS011;4038;42.612;23.066;2022-11-18T00:23:36;227.17;;;66.50;;
7985;SDS011;4038;42.612;23.066;2022-11-18T00:26:08;172.57;;;61.10;;
7985;SDS011;4038;42.612;23.066;2022-11-18T00:28:36;96.93;;;55.33;;
7985;SDS011;4038;42.612;23.066;2022-11-18T00:31:03;157.40;;;58.17;;
7985;SDS011;4038;42.612;23.066;2022-11-18T00:33:30;89.00;;;55.33;;
7985;SDS011;4038;42.612;23.066;2022-11-18T00:35:56;109.70;;;57.33;;
7985;SDS011;4038;42.612;23.066;2022-11-18T00:38:22;76.30;;;53.90;;
7985;SDS011;4038;42.612;23.066;2022-11-18T00:40:47;97.67;;;53.57;;
7985;SDS011;4038;42.612;23.066;2022-11-18T00:43:12;149.37;;;58.53;;
7985;SDS011;4038;42.612;23.066;2022-11-18T00:45:38;86.40;;;54.67;;
7985;SDS011;4038;42.612;23.066;2022-11-18T00:48:03;120.70;;;53.03;;
7985;SDS011;4038;42.612;23.066;2022-11-18T00:50:29;87.33;;;51.13;;
7985;SDS011;4038;42.612;23.066;2022-11-18T00:52:54;139.13;;;54.97;;
7985;SDS011;4038;42.612;23.066;2022-11-18T00:55:20;57.53;;;49.50;;
7985;SDS011;4038;42.612;23.066;2022-11-18T00:57:45;72.07;;;50.47;;
7985;SDS011;4038;42.612;23.066;2022-11-18T01:00:11;86.93;;;49.40;;
7985;SDS011;4038;42.612;23.066;2022-11-18T01:02:36;73.90;;;49.97;;
7985;SDS011;4038;42.612;23.066;2022-11-18T01:05:02;95.90;;;49.47;;
7985;SDS011;4038;42.612;23.066;2022-11-18T01:07:28;67.27;;;35.90;;
7985;SDS011;4038;42.612;23.066;2022-11-18T01:09:54;91.23;;;33.60;;
7985;SDS011;4038;42.612;23.066;2022-11-18T01:12:21;89.17;;;31.67;;
7985;SDS011;4038;42.612;23.066;2022-11-18T01:15:05;120.10;;;31.73;;
7985;SDS011;4038;42.612;23.066;2022-11-18T01:17:31;88.63;;;32.43;;
7985;SDS011;4038;42.612;23.066;2022-11-18T01:19:56;76.17;;;30.63;;
7985;SDS011;4038;42.612;23.066;2022-11-18T01:22:22;88.70;;;30.33;;
7985;SDS011;4038;42.612;23.066;2022-11-18T01:24:48;44.63;;;29.20;;
7985;SDS011;4038;42.612;23.066;2022-11-18T01:27:13;42.87;;;29.07;;
7985;SDS011;4038;42.612;23.066;2022-11-18T01:29:39;55.17;;;31.58;;
7985;SDS011;4038;42.612;23.066;2022-11-18T01:32:04;82.93;;;34.72;;
7985;SDS011;4038;42.612;23.066;2022-11-18T01:34:29;88.17;;;33.13;;
7985;SDS011;4038;42.612;23.066;2022-11-18T01:36:55;71.67;;;31.93;;
7985;SDS011;4038;42.612;23.066;2022-11-18T01:39:21;65.97;;;34.67;;
7985;SDS011;4038;42.612;23.066;2022-11-18T01:41:47;107.90;;;33.30;;
7985;SDS011;4038;42.612;23.066;2022-11-18T01:47:15;117.17;;;38.23;;
7985;SDS011;4038;42.612;23.066;2022-11-18T01:49:41;55.37;;;33.37;;
7985;SDS011;4038;42.612;23.066;2022-11-18T01:52:06;88.73;;;34.60;;
7985;SDS011;4038;42.612;23.066;2022-11-18T01:54:34;62.07;;;33.17;;
7985;SDS011;4038;42.612;23.066;2022-11-18T01:57:02;70.80;;;33.03;;
7985;SDS011;4038;42.612;23.066;2022-11-18T01:59:32;78.83;;;35.27;;
7985;SDS011;4038;42.612;23.066;2022-11-18T02:02:00;102.20;;;33.50;;
7985;SDS011;4038;42.612;23.066;2022-11-18T02:04:30;136.50;;;35.00;;
7985;SDS011;4038;42.612;23.066;2022-11-18T02:06:55;72.90;;;33.07;;
7985;SDS011;4038;42.612;23.066;2022-11-18T02:09:22;59.77;;;32.77;;
7985;SDS011;4038;42.612;23.066;2022-11-18T02:11:47;64.67;;;28.43;;
7985;SDS011;4038;42.612;23.066;2022-11-18T02:14:16;62.97;;;27.73;;
7985;SDS011;4038;42.612;23.066;2022-11-18T02:22:17;34.13;;;22.97;;
7985;SDS011;4038;42.612;23.066;2022-11-18T02:36:12;108.07;;;25.87;;
7985;SDS011;4038;42.612;23.066;2022-11-18T02:38:45;88.47;;;25.10;;
7985;SDS011;4038;42.612;23.066;2022-11-18T02:41:15;79.07;;;24.47;;
7985;SDS011;4038;42.612;23.066;2022-11-18T02:43:46;132.10;;;26.83;;
7985;SDS011;4038;42.612;23.066;2022-11-18T02:46:16;48.53;;;24.90;;
7985;SDS011;4038;42.612;23.066;2022-11-18T02:48:57;118.33;;;26.70;;
7985;SDS011;4038;42.612;23.066;2022-11-18T02:51:25;122.00;;;30.67;;
7985;SDS011;4038;42.612;23.066;2022-11-18T02:53:54;71.13;;;31.03;;
7985;SDS011;4038;42.612;23.066;2022-11-18T02:56:23;105.43;;;27.90;;
7985;SDS011;4038;42.612;23.066;2022-11-18T02:58:51;153.50;;;26.40;;
7985;SDS011;4038;42.612;23.066;2022-11-18T03:01:18;94.30;;;27.13;;
7985;SDS011;4038;42.612;23.066;2022-11-18T03:03:46;38.60;;;25.53;;
7985;SDS011;4038;42.612;23.066;2022-11-18T03:08:49;85.60;;;25.37;;
7985;SDS011;4038;42.612;23.066;2022-11-18T03:11:23;58.53;;;23.83;;
7985;SDS011;4038;42.612;23.066;2022-11-18T03:24:36;147.47;;;23.90;;
7985;SDS011;4038;42.612;23.066;2022-11-18T03:27:09;82.63;;;23.60;;
7985;SDS011;4038;42.612;23.066;2022-11-18T03:29:52;49.17;;;22.03;;
7985;SDS011;4038;42.612;23.066;2022-11-18T03:32:26;96.63;;;24.40;;
7985;SDS011;4038;42.612;23.066;2022-11-18T03:35:04;70.47;;;22.97;;
7985;SDS011;4038;42.612;23.066;2022-11-18T03:37:33;136.40;;;24.57;;
7985;SDS011;4038;42.612;23.066;2022-11-18T03:40:03;51.63;;;22.07;;
7985;SDS011;4038;42.612;23.066;2022-11-18T03:42:42;35.90;;;23.00;;
7985;SDS011;4038;42.612;23.066;2022-11-18T03:45:13;84.57;;;23.60;;
7985;SDS011;4038;42.612;23.066;2022-11-18T03:47:45;84.77;;;21.30;;
7985;SDS011;4038;42.612;23.066;2022-11-18T03:50:25;81.90;;;23.13;;
7985;SDS011;4038;42.612;23.066;2022-11-18T03:52:53;87.90;;;22.40;;
7985;SDS011;4038;42.612;23.066;2022-11-18T03:55:21;83.70;;;22.77;;
7985;SDS011;4038;42.612;23.066;2022-11-18T03:57:50;68.53;;;21.20;;
7985;SDS011;4038;42.612;23.066;2022-11-18T04:00:21;38.20;;;20.23;;
7985;SDS011;4038;42.612;23.066;2022-11-18T04:02:47;43.87;;;19.90;;
7985;SDS011;4038;42.612;23.066;2022-11-18T04:05:14;60.00;;;20.63;;
7985;SDS011;4038;42.612;23.066;2022-11-18T04:10:17;56.33;;;21.27;;
7985;SDS011;4038;42.612;23.066;2022-11-18T04:12:45;41.23;;;20.77;;
7985;SDS011;4038;42.612;23.066;2022-11-18T04:15:15;24.17;;;21.37;;
7985;SDS011;4038;42.612;23.066;2022-11-18T04:17:41;37.93;;;21.00;;
7985;SDS011;4038;42.612;23.066;2022-11-18T04:20:11;23.97;;;19.97;;
7985;SDS011;4038;42.612;23.066;2022-11-18T04:22:40;26.07;;;20.40;;
7985;SDS011;4038;42.612;23.066;2022-11-18T04:25:05;23.23;;;20.93;;
7985;SDS011;4038;42.612;23.066;2022-11-18T04:27:31;32.77;;;21.03;;
7985;SDS011;4038;42.612;23.066;2022-11-18T04:29:56;58.47;;;21.90;;
7985;SDS011;4038;42.612;23.066;2022-11-18T04:32:21;37.13;;;21.40;;
7985;SDS011;4038;42.612;23.066;2022-11-18T04:34:47;61.83;;;23.13;;
7985;SDS011;4038;42.612;23.066;2022-11-18T04:37:12;78.33;;;22.60;;
7985;SDS011;4038;42.612;23.066;2022-11-18T04:39:38;53.57;;;23.10;;
7985;SDS011;4038;42.612;23.066;2022-11-18T04:42:03;114.90;;;24.27;;
7985;SDS011;4038;42.612;23.066;2022-11-18T04:44:30;82.33;;;23.10;;
7985;SDS011;4038;42.612;23.066;2022-11-18T04:46:57;89.53;;;25.03;;
7985;SDS011;4038;42.612;23.066;2022-11-18T04:49:24;105.33;;;24.80;;
7985;SDS011;4038;42.612;23.066;2022-11-18T04:51:51;71.73;;;23.70;;
7985;SDS011;4038;42.612;23.066;2022-11-18T04:54:17;112.47;;;23.33;;
7985;SDS011;4038;42.612;23.066;2022-11-18T04:56:43;25.43;;;21.77;;
7985;SDS011;4038;42.612;23.066;2022-11-18T04:59:09;46.60;;;23.23;;
7985;SDS011;4038;42.612;23.066;2022-11-18T05:01:35;52.50;;;22.67;;
7985;SDS011;4038;42.612;23.066;2022-11-18T05:04:02;41.20;;;23.37;;
7985;SDS011;4038;42.612;23.066;2022-11-18T05:06:29;76.30;;;23.60;;
7985;SDS011;4038;42.612;23.066;2022-11-18T05:08:56;126.80;;;23.83;;
7985;SDS011;4038;42.612;23.066;2022-11-18T05:11:22;241.70;;;28.47;;
7985;SDS011;4038;42.612;23.066;2022-11-18T05:14:06;151.87;;;24.43;;
7985;SDS011;4038;42.612;23.066;2022-11-18T05:16:31;111.27;;;25.07;;
7985;SDS011;4038;42.612;23.066;2022-11-18T05:18:57;107.97;;;26.57;;
7985;SDS011;4038;42.612;23.066;2022-11-18T05:21:22;195.07;;;28.43;;
7985;SDS011;4038;42.612;23.066;2022-11-18T05:23:47;183.53;;;30.47;;
7985;SDS011;4038;42.612;23.066;2022-11-18T05:26:13;194.67;;;28.37;;
7985;SDS011;4038;42.612;23.066;2022-11-18T05:28:38;182.37;;;28.83;;
7985;SDS011;4038;42.612;23.066;2022-11-18T05:31:07;149.87;;;24.30;;
7985;SDS011;4038;42.612;23.066;2022-11-18T05:33:34;184.90;;;25.73;;
7985;SDS011;4038;42.612;23.066;2022-11-18T05:36:03;278.70;;;28.73;;
7985;SDS011;4038;42.612;23.066;2022-11-18T05:38:30;155.83;;;26.33;;
7985;SDS011;4038;42.612;23.066;2022-11-18T05:40:56;142.10;;;25.87;;
7985;SDS011;4038;42.612;23.066;2022-11-18T05:43:22;175.40;;;26.33;;
7985;SDS011;4038;42.612;23.066;2022-11-18T05:45:48;134.20;;;24.87;;
7985;SDS011;4038;42.612;23.066;2022-11-18T05:48:14;289.67;;;30.80;;
7985;SDS011;4038;42.612;23.066;2022-11-18T05:50:40;147.17;;;26.30;;
7985;SDS011;4038;42.612;23.066;2022-11-18T05:53:05;174.13;;;25.73;;
7985;SDS011;4038;42.612;23.066;2022-11-18T05:55:36;182.80;;;24.27;;
7985;SDS011;4038;42.612;23.066;2022-11-18T05:58:06;205.43;;;24.13;;
7985;SDS011;4038;42.612;23.066;2022-11-18T06:00:32;64.00;;;21.27;;
7985;SDS011;4038;42.612;23.066;2022-11-18T06:02:58;54.70;;;21.20;;
7985;SDS011;4038;42.612;23.066;2022-11-18T06:05:24;60.03;;;21.30;;
7985;SDS011;4038;42.612;23.066;2022-11-18T06:07:50;60.93;;;21.30;;
7985;SDS011;4038;42.612;23.066;2022-11-18T06:10:23;42.97;;;20.37;;
7985;SDS011;4038;42.612;23.066;2022-11-18T06:12:54;34.07;;;20.23;;
7985;SDS011;4038;42.612;23.066;2022-11-18T06:15:25;47.73;;;21.03;;
7985;SDS011;4038;42.612;23.066;2022-11-18T06:17:56;41.40;;;21.87;;
7985;SDS011;4038;42.612;23.066;2022-11-18T06:20:25;25.17;;;21.00;;
7985;SDS011;4038;42.612;23.066;2022-11-18T06:22:52;29.33;;;21.40;;
7985;SDS011;4038;42.612;23.066;2022-11-18T06:25:20;25.50;;;23.00;;
7985;SDS011;4038;42.612;23.066;2022-11-18T06:27:46;25.97;;;23.43;;
7985;SDS011;4038;42.612;23.066;2022-11-18T06:30:13;26.53;;;23.47;;
7985;SDS011;4038;42.612;23.066;2022-11-18T06:32:39;25.07;;;22.80;;
7985;SDS011;4038;42.612;23.066;2022-11-18T06:35:05;25.43;;;23.10;;
7985;SDS011;4038;42.612;23.066;2022-11-18T06:37:31;34.70;;;23.73;;
7985;SDS011;4038;42.612;23.066;2022-11-18T06:39:56;26.90;;;24.23;;
7985;SDS011;4038;42.612;23.066;2022-11-18T06:42:22;27.63;;;23.63;;
7985;SDS011;4038;42.612;23.066;2022-11-18T06:45:06;27.30;;;25.10;;
7985;SDS011;4038;42.612;23.066;2022-11-18T06:47:31;26.75;;;24.35;;
7985;SDS011;4038;42.612;23.066;2022-11-18T06:49:57;44.60;;;29.50;;
7985;SDS011;4038;42.612;23.066;2022-11-18T06:52:22;34.47;;;28.70;;
7985;SDS011;4038;42.612;23.066;2022-11-18T06:54:48;28.60;;;26.00;;
7985;SDS011;4038;42.612;23.066;2022-11-18T06:57:13;26.00;;;24.10;;
7985;SDS011;4038;42.612;23.066;2022-11-18T06:59:39;27.50;;;25.13;;
7985;SDS011;4038;42.612;23.066;2022-11-18T07:02:05;27.10;;;24.58;;
7985;SDS011;4038;42.612;23.066;2022-11-18T07:04:30;60.72;;;25.35;;
7985;SDS011;4038;42.612;23.066;2022-11-18T07:06:57;74.07;;;25.67;;
7985;SDS011;4038;42.612;23.066;2022-11-18T07:09:23;105.83;;;26.80;;
7985;SDS011;4038;42.612;23.066;2022-11-18T07:11:48;76.87;;;26.23;;
7985;SDS011;4038;42.612;23.066;2022-11-18T07:14:13;51.47;;;25.83;;
7985;SDS011;4038;42.612;23.066;2022-11-18T07:16:40;52.58;;;25.30;;
7985;SDS011;4038;42.612;23.066;2022-11-18T07:19:09;39.83;;;27.73;;
7985;SDS011;4038;42.612;23.066;2022-11-18T07:21:36;28.40;;;25.85;;
7985;SDS011;4038;42.612;23.066;2022-11-18T07:24:03;28.10;;;26.00;;
7985;SDS011;4038;42.612;23.066;2022-11-18T07:26:31;29.25;;;26.92;;
7985;SDS011;4038;42.612;23.066;2022-11-18T07:28:57;26.10;;;23.63;;
7985;SDS011;4038;42.612;23.066;2022-11-18T07:31:22;26.90;;;24.42;;
7985;SDS011;4038;42.612;23.066;2022-11-18T07:33:48;31.98;;;26.20;;
7985;SDS011;4038;42.612;23.066;2022-11-18T07:36:15;38.15;;;26.58;;
7985;SDS011;4038;42.612;23.066;2022-11-18T07:38:42;26.35;;;24.25;;
7985;SDS011;4038;42.612;23.066;2022-11-18T07:41:11;26.38;;;24.48;;
7985;SDS011;4038;42.612;23.066;2022-11-18T07:43:39;27.20;;;25.20;;
7985;SDS011;4038;42.612;23.066;2022-11-18T07:46:12;27.83;;;25.60;;
7985;SDS011;4038;42.612;23.066;2022-11-18T07:48:46;29.38;;;27.08;;
7985;SDS011;4038;42.612;23.066;2022-11-18T07:51:14;26.83;;;24.90;;
7985;SDS011;4038;42.612;23.066;2022-11-18T07:53:40;26.15;;;24.25;;
7985;SDS011;4038;42.612;23.066;2022-11-18T07:56:06;25.25;;;23.45;;
7985;SDS011;4038;42.612;23.066;2022-11-18T07:58:32;25.55;;;23.55;;
7985;SDS011;4038;42.612;23.066;2022-11-18T08:01:05;26.13;;;24.33;;
7985;SDS011;4038;42.612;23.066;2022-11-18T08:03:34;27.70;;;25.30;;
7985;SDS011;4038;42.612;23.066;2022-11-18T08:05:59;27.08;;;24.10;;
7985;SDS011;4038;42.612;23.066;2022-11-18T08:08:26;25.85;;;23.67;;
7985;SDS011;4038;42.612;23.066;2022-11-18T08:10:55;26.75;;;24.15;;
7985;SDS011;4038;42.612;23.066;2022-11-18T08:13:25;27.20;;;25.02;;
7985;SDS011;4038;42.612;23.066;2022-11-18T08:15:51;26.25;;;24.23;;
7985;SDS011;4038;42.612;23.066;2022-11-18T08:18:16;27.05;;;25.05;;
7985;SDS011;4038;42.612;23.066;2022-11-18T08:20:42;26.75;;;24.85;;
7985;SDS011;4038;42.612;23.066;2022-11-18T08:23:11;27.83;;;25.55;;
7985;SDS011;4038;42.612;23.066;2022-11-18T08:25:38;26.27;;;24.30;;
7985;SDS011;4038;42.612;23.066;2022-11-18T08:28:04;25.80;;;24.00;;
7985;SDS011;4038;42.612;23.066;2022-11-18T08:30:29;24.95;;;23.15;;
7985;SDS011;4038;42.612;23.066;2022-11-18T08:32:57;24.92;;;23.23;;
7985;SDS011;4038;42.612;23.066;2022-11-18T08:35:22;25.50;;;23.60;;
7985;SDS011;4038;42.612;23.066;2022-11-18T08:37:49;25.70;;;23.80;;
7985;SDS011;4038;42.612;23.066;2022-11-18T08:40:15;26.60;;;24.73;;
7985;SDS011;4038;42.612;23.066;2022-11-18T08:42:40;25.85;;;23.98;;
7985;SDS011;4038;42.612;23.066;2022-11-18T08:45:05;29.25;;;27.15;;
7985;SDS011;4038;42.612;23.066;2022-11-18T08:47:34;28.20;;;26.10;;
7985;SDS011;4038;42.612;23.066;2022-11-18T08:50:01;27.20;;;25.20;;
7985;SDS011;4038;42.612;23.066;2022-11-18T08:52:30;26.88;;;24.67;;
7985;SDS011;4038;42.612;23.066;2022-11-18T08:54:55;25.35;;;23.45;;
7985;SDS011;4038;42.612;23.066;2022-11-18T08:57:21;26.35;;;24.45;;
7985;SDS011;4038;42.612;23.066;2022-11-18T08:59:46;28.48;;;26.45;;
7985;SDS011;4038;42.612;23.066;2022-11-18T09:02:12;25.40;;;23.60;;
7985;SDS011;4038;42.612;23.066;2022-11-18T09:04:39;27.98;;;25.48;;
7985;SDS011;4038;42.612;23.066;2022-11-18T09:07:04;28.15;;;26.08;;
7985;SDS011;4038;42.612;23.066;2022-11-18T09:09:29;27.55;;;24.98;;
7985;SDS011;4038;42.612;23.066;2022-11-18T09:11:55;29.05;;;26.30;;
7985;SDS011;4038;42.612;23.066;2022-11-18T09:14:20;27.10;;;24.85;;
7985;SDS011;4038;42.612;23.066;2022-11-18T09:16:46;28.02;;;25.92;;
7985;SDS011;4038;42.612;23.066;2022-11-18T09:19:12;28.33;;;26.13;;
7985;SDS011;4038;42.612;23.066;2022-11-18T09:21:39;26.50;;;24.60;;
7985;SDS011;4038;42.612;23.066;2022-11-18T09:24:04;26.35;;;24.35;;
7985;SDS011;4038;42.612;23.066;2022-11-18T09:26:30;27.88;;;25.90;;
7985;SDS011;4038;42.612;23.066;2022-11-18T09:28:55;26.48;;;24.55;;
7985;SDS011;4038;42.612;23.066;2022-11-18T09:31:21;26.73;;;24.90;;
7985;SDS011;4038;42.612;23.066;2022-11-18T09:33:46;29.13;;;27.00;;
7985;SDS011;4038;42.612;23.066;2022-11-18T09:36:22;27.98;;;25.90;;
7985;SDS011;4038;42.612;23.066;2022-11-18T09:38:48;28.08;;;26.10;;
7985;SDS011;4038;42.612;23.066;2022-11-18T09:46:44;23.48;;;21.98;;
7985;SDS011;4038;42.612;23.066;2022-11-18T09:49:15;24.23;;;22.40;;
7985;SDS011;4038;42.612;23.066;2022-11-18T09:51:53;25.25;;;23.40;;
7985;SDS011;4038;42.612;23.066;2022-11-18T09:54:20;24.15;;;22.45;;
7985;SDS011;4038;42.612;23.066;2022-11-18T09:56:49;26.02;;;24.38;;
7985;SDS011;4038;42.612;23.066;2022-11-18T09:59:16;24.52;;;22.83;;
7985;SDS011;4038;42.612;23.066;2022-11-18T10:01:44;24.25;;;22.63;;
7985;SDS011;4038;42.612;23.066;2022-11-18T10:04:14;24.17;;;22.48;;
7985;SDS011;4038;42.612;23.066;2022-11-18T10:06:42;22.95;;;21.17;;
7985;SDS011;4038;42.612;23.066;2022-11-18T10:11:36;26.27;;;24.67;;
7985;SDS011;4038;42.612;23.066;2022-11-18T10:19:49;24.00;;;22.30;;
7985;SDS011;4038;42.612;23.066;2022-11-18T10:22:25;25.90;;;24.10;;
7985;SDS011;4038;42.612;23.066;2022-11-18T10:24:55;23.75;;;22.02;;
7985;SDS011;4038;42.612;23.066;2022-11-18T10:27:22;25.13;;;23.42;;
7985;SDS011;4038;42.612;23.066;2022-11-18T10:29:57;24.42;;;22.77;;
7985;SDS011;4038;42.612;23.066;2022-11-18T10:32:25;25.77;;;24.08;;
7985;SDS011;4038;42.612;23.066;2022-11-18T10:34:55;24.77;;;23.20;;
7985;SDS011;4038;42.612;23.066;2022-11-18T10:39:54;23.38;;;21.67;;
7985;SDS011;4038;42.612;23.066;2022-11-18T10:42:40;24.75;;;22.98;;
7985;SDS011;4038;42.612;23.066;2022-11-18T10:47:57;23.73;;;22.23;;
7985;SDS011;4038;42.612;23.066;2022-11-18T10:50:36;24.58;;;23.02;;
7985;SDS011;4038;42.612;23.066;2022-11-18T10:53:04;24.05;;;22.08;;
7985;SDS011;4038;42.612;23.066;2022-11-18T10:55:56;22.77;;;21.25;;
7985;SDS011;4038;42.612;23.066;2022-11-18T10:58:35;22.67;;;21.17;;
7985;SDS011;4038;42.612;23.066;2022-11-18T11:03:39;25.17;;;23.48;;
7985;SDS011;4038;42.612;23.066;2022-11-18T11:08:58;24.58;;;23.05;;
7985;SDS011;4038;42.612;23.066;2022-11-18T11:11:29;24.80;;;23.20;;
7985;SDS011;4038;42.612;23.066;2022-11-18T11:14:00;24.25;;;22.65;;
7985;SDS011;4038;42.612;23.066;2022-11-18T11:16:41;23.55;;;21.88;;
7985;SDS011;4038;42.612;23.066;2022-11-18T11:19:12;23.83;;;22.13;;
7985;SDS011;4038;42.612;23.066;2022-11-18T11:21:41;23.50;;;21.80;;
7985;SDS011;4038;42.612;23.066;2022-11-18T11:24:10;23.83;;;22.33;;
7985;SDS011;4038;42.612;23.066;2022-11-18T11:29:17;23.83;;;22.23;;
7985;SDS011;4038;42.612;23.066;2022-11-18T11:34:36;23.98;;;22.40;;
7985;SDS011;4038;42.612;23.066;2022-11-18T11:37:08;25.98;;;23.92;;
7985;SDS011;4038;42.612;23.066;2022-11-18T11:39:45;24.80;;;23.30;;
7985;SDS011;4038;42.612;23.066;2022-11-18T11:48:04;24.20;;;22.60;;
7985;SDS011;4038;42.612;23.066;2022-11-18T11:50:51;24.23;;;22.73;;
7985;SDS011;4038;42.612;23.066;2022-11-18T11:53:22;26.27;;;24.67;;
7985;SDS011;4038;42.612;23.066;2022-11-18T11:56:11;25.23;;;23.73;;
7985;SDS011;4038;42.612;23.066;2022-11-18T12:04:33;24.92;;;23.33;;
7985;SDS011;4038;42.612;23.066;2022-11-18T12:07:24;26.23;;;24.58;;
7985;SDS011;4038;42.612;23.066;2022-11-18T12:20:44;24.98;;;23.48;;
7985;SDS011;4038;42.612;23.066;2022-11-18T12:28:20;24.65;;;23.05;;
7985;SDS011;4038;42.612;23.066;2022-11-18T12:33:57;24.80;;;23.17;;
7985;SDS011;4038;42.612;23.066;2022-11-18T12:36:30;25.40;;;23.70;;
7985;SDS011;4038;42.612;23.066;2022-11-18T12:41:51;24.73;;;23.23;;
7985;SDS011;4038;42.612;23.066;2022-11-18T12:44:37;25.52;;;24.02;;
7985;SDS011;4038;42.612;23.066;2022-11-18T12:54:58;25.13;;;23.63;;
7985;SDS011;4038;42.612;23.066;2022-11-18T12:57:29;26.35;;;24.75;;
7985;SDS011;4038;42.612;23.066;2022-11-18T12:59:57;25.27;;;23.77;;
7985;SDS011;4038;42.612;23.066;2022-11-18T13:02:24;25.00;;;23.20;;
7985;SDS011;4038;42.612;23.066;2022-11-18T13:05:01;24.85;;;23.35;;
7985;SDS011;4038;42.612;23.066;2022-11-18T13:07:29;26.20;;;24.40;;
7985;SDS011;4038;42.612;23.066;2022-11-18T13:10:24;25.55;;;23.77;;
7985;SDS011;4038;42.612;23.066;2022-11-18T13:12:53;25.45;;;23.95;;
7985;SDS011;4038;42.612;23.066;2022-11-18T13:15:19;24.88;;;23.08;;
7985;SDS011;4038;42.612;23.066;2022-11-18T13:18:04;26.10;;;24.50;;
7985;SDS011;4038;42.612;23.066;2022-11-18T13:20:33;25.58;;;24.00;;
7985;SDS011;4038;42.612;23.066;2022-11-18T13:26:10;25.17;;;23.55;;
7985;SDS011;4038;42.612;23.066;2022-11-18T13:28:37;24.52;;;23.00;;
7985;SDS011;4038;42.612;23.066;2022-11-18T13:31:16;24.20;;;22.52;;
7985;SDS011;4038;42.612;23.066;2022-11-18T13:33:42;24.92;;;23.42;;
7985;SDS011;4038;42.612;23.066;2022-11-18T13:36:17;24.73;;;23.05;;
7985;SDS011;4038;42.612;23.066;2022-11-18T13:39:27;25.08;;;23.38;;
7985;SDS011;4038;42.612;23.066;2022-11-18T13:41:56;24.17;;;22.48;;
7985;SDS011;4038;42.612;23.066;2022-11-18T13:44:27;24.67;;;23.17;;
7985;SDS011;4038;42.612;23.066;2022-11-18T13:47:06;25.48;;;23.80;;
7985;SDS011;4038;42.612;23.066;2022-11-18T13:52:38;24.85;;;23.25;;
7985;SDS011;4038;42.612;23.066;2022-11-18T13:55:25;24.30;;;22.70;;
7985;SDS011;4038;42.612;23.066;2022-11-18T13:58:38;23.90;;;22.30;;
7985;SDS011;4038;42.612;23.066;2022-11-18T14:00:44;25.17;;;23.58;;
7985;SDS011;4038;42.612;23.066;2022-11-18T14:03:23;26.02;;;24.23;;
7985;SDS011;4038;42.612;23.066;2022-11-18T14:05:53;25.30;;;23.52;;
7985;SDS011;4038;42.612;23.066;2022-11-18T14:08:30;24.27;;;22.67;;
7985;SDS011;4038;42.612;23.066;2022-11-18T14:11:00;22.70;;;21.20;;
7985;SDS011;4038;42.612;23.066;2022-11-18T14:13:30;23.38;;;21.83;;
7985;SDS011;4038;42.612;23.066;2022-11-18T14:18:44;24.35;;;22.88;;
7985;SDS011;4038;42.612;23.066;2022-11-18T14:21:12;23.48;;;21.98;;
7985;SDS011;4038;42.612;23.066;2022-11-18T14:23:40;23.63;;;22.02;;
7985;SDS011;4038;42.612;23.066;2022-11-18T14:26:07;23.73;;;22.13;;
7985;SDS011;4038;42.612;23.066;2022-11-18T14:28:33;24.77;;;23.13;;
7985;SDS011;4038;42.612;23.066;2022-11-18T14:31:04;26.70;;;24.80;;
7985;SDS011;4038;42.612;23.066;2022-11-18T14:33:32;24.27;;;22.35;;
7985;SDS011;4038;42.612;23.066;2022-11-18T14:38:45;23.90;;;22.17;;
7985;SDS011;4038;42.612;23.066;2022-11-18T14:41:16;24.55;;;22.60;;
7985;SDS011;4038;42.612;23.066;2022-11-18T14:44:02;24.08;;;22.25;;
7985;SDS011;4038;42.612;23.066;2022-11-18T14:46:28;25.55;;;23.75;;
7985;SDS011;4038;42.612;23.066;2022-11-18T14:48:53;27.38;;;25.38;;
7985;SDS011;4038;42.612;23.066;2022-11-18T14:51:19;25.05;;;23.23;;
7985;SDS011;4038;42.612;23.066;2022-11-18T14:53:44;28.10;;;25.80;;
7985;SDS011;4038;42.612;23.066;2022-11-18T14:56:20;29.05;;;26.65;;
7985;SDS011;4038;42.612;23.066;2022-11-18T14:58:50;29.23;;;27.08;;
7985;SDS011;4038;42.612;23.066;2022-11-18T15:01:15;29.52;;;26.98;;
7985;SDS011;4038;42.612;23.066;2022-11-18T15:03:40;28.85;;;26.75;;
7985;SDS011;4038;42.612;23.066;2022-11-18T15:06:13;26.98;;;24.88;;
7985;SDS011;4038;42.612;23.066;2022-11-18T15:08:40;30.42;;;27.90;;
7985;SDS011;4038;42.612;23.066;2022-11-18T15:11:06;29.30;;;27.10;;
7985;SDS011;4038;42.612;23.066;2022-11-18T15:13:31;32.20;;;29.67;;
7985;SDS011;4038;42.612;23.066;2022-11-18T15:15:57;29.33;;;27.13;;
7985;SDS011;4038;42.612;23.066;2022-11-18T15:18:22;28.45;;;26.42;;
7985;SDS011;4038;42.612;23.066;2022-11-18T15:20:49;28.77;;;26.67;;
7985;SDS011;4038;42.612;23.066;2022-11-18T15:23:15;31.30;;;29.30;;
7985;SDS011;4038;42.612;23.066;2022-11-18T15:25:41;27.08;;;25.15;;
7985;SDS011;4038;42.612;23.066;2022-11-18T15:28:08;28.27;;;26.27;;
7985;SDS011;4038;42.612;23.066;2022-11-18T15:30:34;26.85;;;25.05;;
7985;SDS011;4038;42.612;23.066;2022-11-18T15:33:00;24.02;;;22.08;;
7985;SDS011;4038;42.612;23.066;2022-11-18T15:35:25;23.48;;;21.50;;
7985;SDS011;4038;42.612;23.066;2022-11-18T15:37:50;24.33;;;22.63;;
7985;SDS011;4038;42.612;23.066;2022-11-18T15:40:16;24.15;;;22.38;;
7985;SDS011;4038;42.612;23.066;2022-11-18T15:42:41;24.30;;;22.27;;
7985;SDS011;4038;42.612;23.066;2022-11-18T15:45:07;24.58;;;22.85;;
7985;SDS011;4038;42.612;23.066;2022-11-18T15:47:33;26.98;;;25.27;;
7985;SDS011;4038;42.612;23.066;2022-11-18T15:49:58;26.27;;;24.40;;
7985;SDS011;4038;42.612;23.066;2022-11-18T15:52:23;25.95;;;24.05;;
7985;SDS011;4038;42.612;23.066;2022-11-18T15:54:51;24.90;;;23.23;;
7985;SDS011;4038;42.612;23.066;2022-11-18T15:57:16;25.00;;;23.23;;
7985;SDS011;4038;42.612;23.066;2022-11-18T15:59:42;26.30;;;24.60;;
7985;SDS011;4038;42.612;23.066;2022-11-18T16:02:08;26.15;;;24.55;;
7985;SDS011;4038;42.612;23.066;2022-11-18T16:04:34;24.42;;;22.92;;
7985;SDS011;4038;42.612;23.066;2022-11-18T16:07:00;26.15;;;24.35;;
7985;SDS011;4038;42.612;23.066;2022-11-18T16:09:27;25.40;;;23.65;;
7985;SDS011;4038;42.612;23.066;2022-11-18T16:12:12;30.33;;;28.02;;
7985;SDS011;4038;42.612;23.066;2022-11-18T16:14:56;30.27;;;28.02;;
7985;SDS011;4038;42.612;23.066;2022-11-18T16:17:41;32.58;;;29.90;;
7985;SDS011;4038;42.612;23.066;2022-11-18T16:20:07;31.38;;;28.98;;
7985;SDS011;4038;42.612;23.066;2022-11-18T16:22:33;30.70;;;28.13;;
7985;SDS011;4038;42.612;23.066;2022-11-18T16:24:58;28.92;;;26.63;;
7985;SDS011;4038;42.612;23.066;2022-11-18T16:27:23;29.10;;;26.80;;
7985;SDS011;4038;42.612;23.066;2022-11-18T16:29:49;28.77;;;26.48;;
7985;SDS011;4038;42.612;23.066;2022-11-18T16:32:14;30.13;;;27.65;;
7985;SDS011;4038;42.612;23.066;2022-11-18T16:34:39;29.15;;;26.60;;
7985;SDS011;4038;42.612;23.066;2022-11-18T16:37:05;26.50;;;24.38;;
7985;SDS011;4038;42.612;23.066;2022-11-18T16:39:32;27.63;;;25.52;;
7985;SDS011;4038;42.612;23.066;2022-11-18T16:41:59;28.73;;;26.40;;